Time;durP1;ratioP1;P1;durP2;ratioP2;P2;SDS_P1;SDS_P2;PMS_P1;PMS_P2;Temp;Humidity;BMP_temperature;BMP_pressure;BME280_temperature;BME280_humidity;BME280_pressure;Samples;Min_cycle;Max_cycle;Signal;HPM_P1;HPM_P2
2022/11/02 00:00:26;33821.00;0.11;59.20;0.00;0.00;0.62;;;;;13.10;5.00;;;;;;2276337;61;1086;-87
2022/11/02 00:02:53;93245.00;0.31;161.91;0.00;0.00;0.62;;;;;13.40;4.70;;;;;;2276479;61;1028;-86
2022/11/02 00:05:23;384311.00;1.28;662.84;88734.00;0.30;154.12;;;;;13.70;4.20;;;;;;2276252;61;1911;-87
2022/11/02 00:07:51;146558.00;0.49;253.88;34893.00;0.12;61.05;;;;;13.40;3.40;;;;;;2276371;61;1021;-89
2022/11/02 00:10:22;162117.00;0.54;280.69;0.00;0.00;0.62;;;;;13.40;4.10;;;;;;2276351;61;1020;-87
2022/11/02 00:12:49;242695.00;0.81;419.39;27363.00;0.09;48.02;;;;;13.40;3.50;;;;;;2276413;61;1117;-88
2022/11/02 00:15:18;63814.00;0.21;111.07;0.00;0.00;0.62;;;;;13.50;3.90;;;;;;2276370;61;1033;-88
2022/11/02 00:17:48;0.00;0.00;0.62;0.00;0.00;0.62;;;;;13.70;3.80;;;;;;2276433;61;1337;-86
2022/11/02 00:20:19;35786.00;0.12;62.60;0.00;0.00;0.62;;;;;13.90;3.30;;;;;;2276471;61;1113;-87
2022/11/02 00:22:50;176554.00;0.59;305.55;0.00;0.00;0.62;;;;;13.70;3.70;;;;;;2276435;61;1106;-87
2022/11/02 00:25:21;84283.00;0.28;146.43;5596.00;0.02;10.32;;;;;13.50;3.80;;;;;;2276296;61;1992;-87
2022/11/02 00:27:48;376020.00;1.25;648.58;31345.00;0.10;54.91;;;;;13.50;4.70;;;;;;2276323;61;1379;-88
2022/11/02 00:30:17;0.00;0.00;0.62;0.00;0.00;0.62;;;;;13.70;4.00;;;;;;2276392;61;1061;-87
2022/11/02 00:32:45;28495.00;0.09;49.98;0.00;0.00;0.62;;;;;13.50;4.20;;;;;;2276379;61;1054;-87
2022/11/02 00:35:13;211633.00;0.71;365.95;0.00;0.00;0.62;;;;;13.40;4.00;;;;;;2276413;61;1118;-87
2022/11/02 00:37:40;47619.00;0.16;83.07;0.00;0.00;0.62;;;;;13.30;4.50;;;;;;2276303;61;1417;-86
2022/11/02 00:40:07;45686.00;0.15;79.72;0.00;0.00;0.62;;;;;13.20;4.40;;;;;;2276334;61;1127;-87
2022/11/02 00:42:34;260939.00;0.87;450.76;29645.00;0.10;51.97;;;;;13.10;5.20;;;;;;2276282;61;1142;-87
2022/11/02 00:45:02;162001.00;0.54;280.49;0.00;0.00;0.62;;;;;13.10;5.10;;;;;;2276308;61;1017;-87
2022/11/02 00:47:38;285079.00;0.95;492.27;36533.00;0.12;63.89;;;;;13.10;4.80;;;;;;2276041;61;2039;-86
2022/11/02 00:50:07;88175.00;0.29;153.16;17999.00;0.06;31.80;;;;;13.10;5.30;;;;;;2276338;61;1113;-88
2022/11/02 00:55:10;350795.00;1.17;605.23;0.00;0.00;0.62;;;;;13.10;4.20;;;;;;799411;59;1726;-86
2022/11/02 00:57:41;70645.00;0.24;122.87;0.00;0.00;0.62;;;;;13.10;5.40;;;;;;2272211;61;1466;-87
2022/11/02 01:00:10;146025.00;0.49;252.96;0.00;0.00;0.62;;;;;13.00;4.60;;;;;;2272193;61;1118;-87
2022/11/02 01:02:39;317293.00;1.06;547.65;0.00;0.00;0.62;;;;;12.70;5.60;;;;;;2272056;61;1007;-88
2022/11/02 01:05:08;380812.00;1.27;656.82;0.00;0.00;0.62;;;;;12.70;5.30;;;;;;2307005;56;3748;-86
2022/11/02 01:10:20;55594.00;0.19;96.86;0.00;0.00;0.62;;;;;12.70;4.80;;;;;;2291251;55;3721;-86
2022/11/02 01:12:50;193880.00;0.65;335.39;0.00;0.00;0.62;;;;;12.50;4.90;;;;;;2282494;39;3547;-89
2022/11/02 01:15:17;137171.00;0.46;237.69;0.00;0.00;0.62;;;;;12.60;4.60;;;;;;2280230;60;1020;-88
2022/11/02 01:17:46;76711.00;0.26;133.36;0.00;0.00;0.62;;;;;12.50;4.80;;;;;;2276308;61;1291;-87
2022/11/02 01:20:13;5756.00;0.02;10.60;0.00;0.00;0.62;;;;;12.50;5.00;;;;;;2276172;61;1120;-86
2022/11/02 01:22:40;306135.00;1.02;528.47;0.00;0.00;0.62;;;;;12.40;4.80;;;;;;2276157;61;1486;-88
2022/11/02 01:25:08;105733.00;0.35;183.47;0.00;0.00;0.62;;;;;12.40;5.50;;;;;;2280175;55;3756;-85
2022/11/02 01:27:35;423529.00;1.41;730.26;11143.00;0.04;19.93;;;;;12.50;4.90;;;;;;2276323;61;1972;-87
2022/11/02 01:30:02;102273.00;0.34;177.50;0.00;0.00;0.62;;;;;12.60;4.90;;;;;;2276169;61;1142;-88
2022/11/02 01:32:29;207683.00;0.69;359.15;0.00;0.00;0.62;;;;;12.50;5.10;;;;;;2276227;61;1117;-86
2022/11/02 01:34:58;181588.00;0.61;314.22;0.00;0.00;0.62;;;;;12.40;4.30;;;;;;2276098;61;1787;-86
2022/11/02 01:37:25;273042.00;0.91;471.57;0.00;0.00;0.62;;;;;12.50;4.50;;;;;;2276129;61;1427;-87
2022/11/02 01:39:52;196306.00;0.65;339.56;0.00;0.00;0.62;;;;;12.30;5.30;;;;;;2276206;61;1106;-87
2022/11/02 01:42:21;128407.00;0.43;222.58;0.00;0.00;0.62;;;;;12.30;5.10;;;;;;2276200;61;1122;-87
2022/11/02 01:44:49;115697.00;0.39;200.66;0.00;0.00;0.62;;;;;12.60;4.60;;;;;;2276120;61;968;-86
2022/11/02 01:47:22;331096.00;1.10;571.37;92018.00;0.31;159.79;;;;;12.70;4.60;;;;;;2276004;61;2010;-87
2022/11/02 01:49:57;103153.00;0.34;179.01;0.00;0.00;0.62;;;;;12.50;4.10;;;;;;2276230;61;1135;-85
2022/11/02 01:52:33;225821.00;0.75;390.36;0.00;0.00;0.62;;;;;12.50;4.60;;;;;;2276883;61;1078;-86
2022/11/02 01:55:07;83698.00;0.28;145.42;0.00;0.00;0.62;;;;;12.40;5.30;;;;;;2276753;61;1611;-86
2022/11/02 01:57:37;148339.00;0.49;256.94;0.00;0.00;0.62;;;;;12.20;5.40;;;;;;2276860;61;1375;-86
2022/11/02 02:00:08;709297.00;2.36;1223.36;99651.00;0.33;172.97;;;;;12.10;5.80;;;;;;2276792;61;968;-85
2022/11/02 02:02:39;202198.00;0.67;349.71;0.00;0.00;0.62;;;;;12.00;6.70;;;;;;2276773;61;1035;-87
2022/11/02 02:05:09;312042.00;1.04;538.62;24423.00;0.08;42.93;;;;;12.10;6.20;;;;;;2276795;61;1138;-87
2022/11/02 02:07:40;198291.00;0.66;342.98;0.00;0.00;0.62;;;;;12.10;6.50;;;;;;2276687;61;1928;-86
2022/11/02 02:10:08;47954.00;0.16;83.65;0.00;0.00;0.62;;;;;12.10;6.30;;;;;;2276817;61;1093;-87
2022/11/02 02:12:38;154933.00;0.52;268.31;0.00;0.00;0.62;;;;;11.90;6.10;;;;;;2276768;61;1078;-87
2022/11/02 02:15:06;281298.00;0.94;485.77;0.00;0.00;0.62;;;;;12.10;6.00;;;;;;2276649;61;1632;-86
2022/11/02 02:17:42;486251.00;1.62;838.16;0.00;0.00;0.62;;;;;12.10;7.00;;;;;;2276705;61;1246;-86
2022/11/02 02:20:21;217630.00;0.73;376.27;0.00;0.00;0.62;;;;;12.20;7.00;;;;;;2276799;61;1102;-87
2022/11/02 02:23:19;122498.00;0.41;212.39;0.00;0.00;0.62;;;;;12.20;6.90;;;;;;2276824;61;1131;-87
2022/11/02 02:26:07;138260.00;0.46;239.57;0.00;0.00;0.62;;;;;12.30;6.20;;;;;;2276630;61;1923;-87
2022/11/02 02:28:44;162195.00;0.54;280.82;0.00;0.00;0.62;;;;;12.20;7.20;;;;;;2276751;61;1597;-88
2022/11/02 02:31:19;225682.00;0.75;390.12;0.00;0.00;0.62;;;;;12.00;6.50;;;;;;2276708;61;1762;-87
2022/11/02 02:33:50;76632.00;0.26;133.22;0.00;0.00;0.62;;;;;12.10;6.30;;;;;;2276739;61;1559;-86
2022/11/02 02:36:24;359731.00;1.20;620.59;0.00;0.00;0.62;;;;;12.10;6.90;;;;;;2276742;61;1338;-88
2022/11/02 02:39:02;223726.00;0.75;386.75;0.00;0.00;0.62;;;;;12.10;5.80;;;;;;2276641;61;1063;-88
2022/11/02 02:41:38;9896.00;0.03;17.77;0.00;0.00;0.62;;;;;11.90;6.90;;;;;;2276636;61;1059;-87
2022/11/02 02:44:10;164541.00;0.55;284.86;0.00;0.00;0.62;;;;;11.90;6.30;;;;;;2276781;61;1105;-86
2022/11/02 02:46:44;129926.00;0.43;225.20;0.00;0.00;0.62;;;;;11.80;6.20;;;;;;2276619;61;2005;-88
2022/11/02 02:49:15;43558.00;0.15;76.04;0.00;0.00;0.62;;;;;12.00;7.30;;;;;;2276673;61;1055;-86
2022/11/02 02:51:46;563772.00;1.88;971.71;161995.00;0.54;280.48;;;;;11.90;6.40;;;;;;2276643;61;1411;-86
2022/11/02 02:54:17;198492.00;0.66;343.33;31357.00;0.10;54.93;;;;;12.10;6.70;;;;;;2276753;61;1102;-87
2022/11/02 02:56:48;256765.00;0.86;443.59;0.00;0.00;0.62;;;;;12.20;6.00;;;;;;2276644;61;1286;-88
2022/11/02 02:59:22;213118.00;0.71;368.50;0.00;0.00;0.62;;;;;12.20;5.90;;;;;;2276709;61;1095;-86
2022/11/02 03:01:49;225489.00;0.75;389.79;0.00;0.00;0.62;;;;;12.10;6.10;;;;;;2276355;61;1108;-86
2022/11/02 03:04:16;496331.00;1.65;855.51;47004.00;0.16;82.00;;;;;11.90;5.80;;;;;;2276269;61;1660;-87
2022/11/02 03:06:48;125079.00;0.42;216.84;0.00;0.00;0.62;;;;;12.00;6.50;;;;;;2276538;61;1997;-87
2022/11/02 03:09:23;44291.00;0.15;77.31;0.00;0.00;0.62;;;;;12.10;5.90;;;;;;2276652;61;1067;-87
2022/11/02 03:11:56;0.00;0.00;0.62;0.00;0.00;0.62;;;;;12.20;5.80;;;;;;2276522;61;1082;-87
2022/11/02 03:14:37;115975.00;0.39;201.14;0.00;0.00;0.62;;;;;12.10;5.80;;;;;;2276660;61;1075;-89
2022/11/02 03:17:14;47622.00;0.16;83.07;0.00;0.00;0.62;;;;;12.30;4.50;;;;;;2276536;61;1296;-87
2022/11/02 03:19:50;25095.00;0.08;44.09;0.00;0.00;0.62;;;;;12.10;4.80;;;;;;2276581;61;1064;-88
2022/11/02 03:22:27;191874.00;0.64;331.93;0.00;0.00;0.62;;;;;12.30;5.10;;;;;;2276617;61;988;-86
2022/11/02 03:25:00;328788.00;1.10;567.40;11804.00;0.04;21.07;;;;;12.00;5.20;;;;;;2276645;61;1007;-86
2022/11/02 03:27:38;146643.00;0.49;254.02;0.00;0.00;0.62;;;;;12.10;5.80;;;;;;2276439;61;2002;-88
2022/11/02 03:30:11;3911.00;0.01;7.40;0.00;0.00;0.62;;;;;12.10;5.30;;;;;;2276547;61;1103;-85
2022/11/02 03:32:48;252857.00;0.84;436.86;38891.00;0.13;67.97;;;;;12.10;5.80;;;;;;2276504;61;1027;-86
2022/11/02 03:35:20;137106.00;0.46;237.58;0.00;0.00;0.62;;;;;12.00;5.80;;;;;;2276558;61;1154;-86
2022/11/02 03:37:52;20069.00;0.07;35.39;0.00;0.00;0.62;;;;;12.00;5.50;;;;;;2276452;61;1439;-86
2022/11/02 03:40:26;292855.00;0.98;505.64;0.00;0.00;0.62;;;;;12.00;6.00;;;;;;2276504;61;1579;-89
2022/11/02 03:42:54;52894.00;0.18;92.19;0.00;0.00;0.62;;;;;12.00;6.00;;;;;;2276500;61;1087;-87
2022/11/02 03:45:26;139175.00;0.46;241.15;0.00;0.00;0.62;;;;;12.00;6.00;;;;;;2276503;61;1157;-86
2022/11/02 03:47:57;17642.00;0.06;31.19;0.00;0.00;0.62;;;;;11.80;6.40;;;;;;2276316;61;1917;-87
2022/11/02 03:50:26;195514.00;0.65;338.20;0.00;0.00;0.62;;;;;11.80;7.30;;;;;;2276477;61;1075;-86
2022/11/02 03:52:58;159760.00;0.53;276.63;0.00;0.00;0.62;;;;;11.70;6.00;;;;;;2276220;61;1598;-86
2022/11/02 03:55:31;270545.00;0.90;467.28;13647.00;0.05;24.27;;;;;11.70;6.70;;;;;;2276372;61;1438;-85
2022/11/02 03:57:59;242316.00;0.81;418.73;11589.00;0.04;20.70;;;;;11.80;6.30;;;;;;2276418;61;1636;-87
2022/11/02 04:00:32;151034.00;0.50;261.59;0.00;0.00;0.62;;;;;11.90;6.30;;;;;;2276400;61;932;-86
2022/11/02 04:03:03;96846.00;0.32;168.13;0.00;0.00;0.62;;;;;12.10;5.80;;;;;;2276303;61;1417;-86
2022/11/02 04:05:31;86358.00;0.29;150.02;0.00;0.00;0.62;;;;;12.10;5.10;;;;;;2276315;61;1324;-87
2022/11/02 04:16:10;183647.00;0.61;317.77;77451.00;0.26;134.63;;;;;12.00;6.30;;;;;;2276332;61;1339;-88
2022/11/02 04:21:24;42929.00;0.14;74.96;0.00;0.00;0.62;;;;;12.10;6.20;;;;;;2271309;61;1254;-88
2022/11/02 04:26:35;107409.00;0.36;186.36;0.00;0.00;0.62;;;;;12.30;5.40;;;;;;2276277;61;2000;-84
2022/11/02 04:29:02;738.00;0.00;1.90;0.00;0.00;0.62;;;;;12.10;5.30;;;;;;2276356;61;1089;-87
2022/11/02 04:31:30;89799.00;0.30;155.96;0.00;0.00;0.62;;;;;11.80;4.40;;;;;;2276386;61;1106;-87
2022/11/02 04:33:57;148582.00;0.50;257.36;37241.00;0.12;65.11;;;;;11.60;5.40;;;;;;2276296;61;1618;-87
2022/11/02 04:36:24;215059.00;0.72;371.84;46497.00;0.15;81.13;;;;;11.70;5.60;;;;;;2276336;61;1355;-86
2022/11/02 04:38:50;229344.00;0.76;396.42;5460.00;0.02;10.08;;;;;11.80;6.20;;;;;;2276281;61;962;-88
2022/11/02 04:44:04;225694.00;0.75;390.14;0.00;0.00;0.62;;;;;11.90;5.20;;;;;;2276191;61;617;-86
2022/11/02 04:46:35;86833.00;0.29;150.84;0.00;0.00;0.62;;;;;11.80;5.90;;;;;;2276127;61;2006;-85
2022/11/02 04:49:02;7553.00;0.03;13.71;0.00;0.00;0.62;;;;;11.80;5.50;;;;;;2276197;61;1046;-87
2022/11/02 04:51:30;45063.00;0.15;78.65;0.00;0.00;0.62;;;;;11.90;6.20;;;;;;2276144;61;1062;-87
2022/11/02 04:53:58;85866.00;0.29;149.17;0.00;0.00;0.62;;;;;11.90;5.50;;;;;;2276176;61;1583;-87
2022/11/02 04:56:26;100319.00;0.33;174.12;0.00;0.00;0.62;;;;;11.90;5.10;;;;;;2276224;61;1385;-85
2022/11/02 04:58:55;171570.00;0.57;296.97;0.00;0.00;0.62;;;;;11.90;5.70;;;;;;2276152;61;1508;-86
2022/11/02 05:01:23;54407.00;0.18;94.81;0.00;0.00;0.62;;;;;11.70;5.70;;;;;;2276158;61;947;-87
2022/11/02 05:03:53;117749.00;0.39;204.20;0.00;0.00;0.62;;;;;11.80;5.50;;;;;;2276186;61;1065;-87
2022/11/02 05:06:22;125033.00;0.42;216.76;0.00;0.00;0.62;;;;;11.80;5.50;;;;;;2276082;61;1315;-87
2022/11/02 05:08:49;180395.00;0.60;312.17;0.00;0.00;0.62;;;;;11.80;4.90;;;;;;2276144;61;2007;-87
2022/11/02 05:11:17;50576.00;0.17;88.18;0.00;0.00;0.62;;;;;11.90;5.20;;;;;;2276106;61;1141;-88
2022/11/02 05:13:44;210265.00;0.70;363.59;0.00;0.00;0.62;;;;;11.70;5.30;;;;;;2276176;61;1696;-88
2022/11/02 05:16:13;161802.00;0.54;280.14;0.00;0.00;0.62;;;;;11.90;4.80;;;;;;2276143;61;1439;-88
2022/11/02 05:18:40;107800.00;0.36;187.03;0.00;0.00;0.62;;;;;11.90;4.30;;;;;;2276241;61;1138;-88
2022/11/02 05:21:10;51736.00;0.17;90.19;0.00;0.00;0.62;;;;;11.70;5.10;;;;;;2276196;61;1084;-86
2022/11/02 05:23:38;0.00;0.00;0.62;0.00;0.00;0.62;;;;;11.20;6.50;;;;;;2276173;61;1130;-86
2022/11/02 05:26:07;84480.00;0.28;146.78;0.00;0.00;0.62;;;;;11.10;7.80;;;;;;2276613;61;1581;-86
2022/11/02 05:28:34;72677.00;0.24;126.39;0.00;0.00;0.62;;;;;11.20;8.00;;;;;;2276826;61;2006;-86
2022/11/02 05:31:02;304877.00;1.02;526.30;0.00;0.00;0.62;;;;;11.30;7.20;;;;;;2276736;61;1555;-86
2022/11/02 05:33:30;249534.00;0.83;431.15;31204.00;0.10;54.67;;;;;11.50;7.10;;;;;;2276755;61;1114;-85
2022/11/02 05:35:58;276431.00;0.92;477.40;0.00;0.00;0.62;;;;;11.30;6.50;;;;;;2276672;61;1364;-86
2022/11/02 05:38:28;70887.00;0.24;123.29;0.00;0.00;0.62;;;;;11.10;7.40;;;;;;2276893;61;1421;-86
2022/11/02 05:40:57;227973.00;0.76;394.06;0.00;0.00;0.62;;;;;11.00;7.40;;;;;;2276905;61;1684;-85
2022/11/02 05:43:24;196988.00;0.66;340.74;0.00;0.00;0.62;;;;;10.80;7.40;;;;;;2276814;61;1636;-87
2022/11/02 05:45:53;272729.00;0.91;471.04;43238.00;0.14;75.49;;;;;10.40;8.70;;;;;;2276746;61;1376;-86
2022/11/02 05:48:21;189009.00;0.63;327.00;0.00;0.00;0.62;;;;;10.40;9.30;;;;;;2276754;61;1914;-89
2022/11/02 05:50:48;556336.00;1.85;958.88;0.00;0.00;0.62;;;;;10.40;10.20;;;;;;2276735;61;920;-85
2022/11/02 05:53:15;155277.00;0.52;268.90;0.00;0.00;0.62;;;;;10.40;10.30;;;;;;2276580;61;1554;-86
2022/11/02 05:55:44;70648.00;0.24;122.88;0.00;0.00;0.62;;;;;10.50;10.50;;;;;;2276818;61;1304;-87
2022/11/02 05:58:11;203938.00;0.68;352.70;0.00;0.00;0.62;;;;;10.40;10.40;;;;;;2276834;61;1057;-86
2022/11/02 06:00:38;34931.00;0.12;61.12;0.00;0.00;0.62;;;;;10.40;11.20;;;;;;2276763;61;1660;-85
2022/11/02 06:03:07;104392.00;0.35;181.15;0.00;0.00;0.62;;;;;10.50;11.30;;;;;;2276785;61;1003;-86
2022/11/02 06:05:34;196834.00;0.66;340.47;0.00;0.00;0.62;;;;;10.40;11.60;;;;;;2276688;61;1287;-87
2022/11/02 06:08:02;54417.00;0.18;94.82;0.00;0.00;0.62;;;;;10.90;10.70;;;;;;2276736;61;1919;-84
2022/11/02 06:10:30;198669.00;0.66;343.63;0.00;0.00;0.62;;;;;11.10;10.00;;;;;;2276575;61;1015;-86
2022/11/02 06:13:00;335424.00;1.12;578.81;40354.00;0.13;70.50;;;;;11.10;8.60;;;;;;2276717;61;1423;-85
2022/11/02 06:15:29;215203.00;0.72;372.09;0.00;0.00;0.62;;;;;11.30;8.40;;;;;;2276646;61;1584;-88
2022/11/02 06:17:56;115304.00;0.38;199.98;0.00;0.00;0.62;;;;;11.20;8.60;;;;;;2276737;61;1021;-86
2022/11/02 06:20:23;120456.00;0.40;208.87;0.00;0.00;0.62;;;;;11.10;9.70;;;;;;2276506;61;1086;-86
2022/11/02 06:22:50;212341.00;0.71;367.16;31951.00;0.11;55.96;;;;;11.20;9.50;;;;;;2276484;61;1043;-86
2022/11/02 06:25:18;11077.00;0.04;19.82;0.00;0.00;0.62;;;;;11.10;9.50;;;;;;2276557;61;1087;-86
2022/11/02 06:27:51;132756.00;0.44;230.08;0.00;0.00;0.62;;;;;11.10;10.60;;;;;;2276570;61;2022;-87
2022/11/02 06:30:20;0.00;0.00;0.62;0.00;0.00;0.62;;;;;11.40;9.00;;;;;;2276759;61;1122;-87
2022/11/02 06:32:47;89820.00;0.30;156.00;0.00;0.00;0.62;;;;;11.30;8.70;;;;;;2276598;61;1592;-86
2022/11/02 06:35:14;156268.00;0.52;270.61;0.00;0.00;0.62;;;;;11.70;8.10;;;;;;2276793;61;1110;-86
2022/11/02 06:37:41;276637.00;0.92;477.76;18523.00;0.06;32.71;;;;;11.70;8.30;;;;;;2276600;61;1431;-86
2022/11/02 06:40:09;128285.00;0.43;222.37;0.00;0.00;0.62;;;;;11.70;7.90;;;;;;2276687;61;1532;-87
2022/11/02 06:42:36;0.00;0.00;0.62;0.00;0.00;0.62;;;;;11.60;8.10;;;;;;2276615;61;1054;-87
2022/11/02 06:45:04;377580.00;1.26;651.27;0.00;0.00;0.62;;;;;11.50;8.70;;;;;;2276617;61;1015;-85
2022/11/02 06:47:34;175698.00;0.59;304.08;0.00;0.00;0.62;;;;;11.50;9.20;;;;;;2276538;61;1915;-88
2022/11/02 06:50:01;57280.00;0.19;99.77;0.00;0.00;0.62;;;;;11.90;8.90;;;;;;2276652;61;1103;-87
2022/11/02 06:52:29;91696.00;0.31;159.24;0.00;0.00;0.62;;;;;12.20;7.90;;;;;;2276664;61;1062;-87
2022/11/02 06:54:56;18787.00;0.06;33.17;0.00;0.00;0.62;;;;;12.30;6.90;;;;;;2276639;61;1471;-87
2022/11/02 06:57:23;104705.00;0.35;181.69;0.00;0.00;0.62;;;;;12.20;6.60;;;;;;2276704;61;1344;-86
2022/11/02 06:59:50;221503.00;0.74;382.93;23405.00;0.08;41.17;;;;;12.50;6.90;;;;;;2276686;61;1002;-87
2022/11/02 07:02:20;226204.00;0.75;391.02;92575.00;0.31;160.75;;;;;12.80;6.20;;;;;;2276614;61;1073;-87
2022/11/02 07:04:49;0.00;0.00;0.62;0.00;0.00;0.62;;;;;12.90;6.00;;;;;;2276712;61;1098;-85
2022/11/02 07:07:16;420446.00;1.40;724.96;28188.00;0.09;49.45;;;;;12.80;5.30;;;;;;2276599;61;2010;-87
2022/11/02 07:09:43;35316.00;0.12;61.78;0.00;0.00;0.62;;;;;12.90;5.50;;;;;;2276609;61;1703;-88
2022/11/02 07:12:11;244866.00;0.82;423.12;0.00;0.00;0.62;;;;;13.00;5.10;;;;;;2276623;61;1714;-88
2022/11/02 07:14:38;170873.00;0.57;295.77;55948.00;0.19;97.47;;;;;13.00;4.50;;;;;;2276579;61;1035;-88
2022/11/02 07:17:05;0.00;0.00;0.62;0.00;0.00;0.62;;;;;12.90;4.90;;;;;;2276614;61;1362;-88
2022/11/02 07:19:31;20863.00;0.07;36.76;0.00;0.00;0.62;;;;;12.70;5.50;;;;;;2276611;61;1655;-87
2022/11/02 07:22:00;0.00;0.00;0.62;0.00;0.00;0.62;;;;;12.70;6.30;;;;;;2276687;61;1121;-87
2022/11/02 07:24:27;54400.00;0.18;94.79;0.00;0.00;0.62;;;;;12.60;6.50;;;;;;2276540;61;1065;-88
2022/11/02 07:26:54;250372.00;0.83;432.59;51594.00;0.17;89.94;;;;;12.50;6.30;;;;;;2276505;61;1525;-87
2022/11/02 07:29:21;64051.00;0.21;111.48;0.00;0.00;0.62;;;;;12.60;6.30;;;;;;2276550;61;2015;-87
2022/11/02 07:31:48;378130.00;1.26;652.21;64986.00;0.22;113.10;;;;;12.80;6.50;;;;;;2276555;61;996;-86
2022/11/02 07:34:15;39893.00;0.13;69.70;0.00;0.00;0.62;;;;;13.20;6.40;;;;;;2276541;61;1593;-87
2022/11/02 07:36:42;293670.00;0.98;507.04;0.00;0.00;0.62;;;;;13.50;5.30;;;;;;2276554;61;1406;-88
2022/11/02 07:39:10;8125.00;0.03;14.70;0.00;0.00;0.62;;;;;13.70;4.80;;;;;;2276588;61;1025;-87
2022/11/02 07:41:37;54570.00;0.18;95.09;0.00;0.00;0.62;;;;;13.90;4.80;;;;;;2276620;61;1082;-88
2022/11/02 07:44:05;225797.00;0.75;390.32;0.00;0.00;0.62;;;;;14.00;4.60;;;;;;2276589;61;1045;-87
2022/11/02 07:46:32;30189.00;0.10;52.91;0.00;0.00;0.62;;;;;14.00;4.60;;;;;;2276450;61;1604;-87
2022/11/02 07:48:59;2882.00;0.01;5.62;0.00;0.00;0.62;;;;;14.10;4.50;;;;;;2276324;61;1907;-87
2022/11/02 07:51:25;356924.00;1.19;615.76;25390.00;0.08;44.60;;;;;14.10;4.60;;;;;;2276544;61;1732;-87
2022/11/02 07:53:52;257143.00;0.86;444.24;29677.00;0.10;52.02;;;;;14.10;3.70;;;;;;2276492;61;1713;-88
2022/11/02 07:56:21;313863.00;1.05;541.75;0.00;0.00;0.62;;;;;14.40;3.00;;;;;;2276371;61;1273;-89
2022/11/02 07:58:47;95670.00;0.32;166.10;0.00;0.00;0.62;;;;;14.50;2.50;;;;;;2276402;61;1117;-88
2022/11/02 08:01:14;114998.00;0.38;199.45;0.00;0.00;0.62;;;;;14.40;2.70;;;;;;2276481;61;1078;-87
2022/11/02 08:03:41;81125.00;0.27;140.98;0.00;0.00;0.62;;;;;14.50;2.70;;;;;;2276477;61;1039;-88
2022/11/02 08:06:08;178067.00;0.59;308.16;0.00;0.00;0.62;;;;;14.40;3.40;;;;;;2276445;61;1625;-88
2022/11/02 08:08:36;18161.00;0.06;32.09;0.00;0.00;0.62;;;;;14.50;3.40;;;;;;2276428;61;1923;-86
2022/11/02 08:11:05;14116.00;0.05;25.08;0.00;0.00;0.62;;;;;14.80;3.40;;;;;;2276503;61;1059;-87
2022/11/02 08:13:35;38848.00;0.13;67.90;0.00;0.00;0.62;;;;;15.10;2.60;;;;;;2276453;61;1111;-88
2022/11/02 08:16:02;108970.00;0.36;189.05;0.00;0.00;0.62;;;;;15.40;2.10;;;;;;2276489;61;1398;-87
2022/11/02 08:18:29;33256.00;0.11;58.22;0.00;0.00;0.62;;;;;15.30;1.60;;;;;;2276375;61;1158;-87
2022/11/02 08:20:57;211872.00;0.71;366.36;0.00;0.00;0.62;;;;;15.10;2.50;;;;;;2276509;61;1113;-87
2022/11/02 08:23:26;184434.00;0.61;319.12;0.00;0.00;0.62;;;;;14.60;2.20;;;;;;2276384;61;1070;-87
2022/11/02 08:25:54;240260.00;0.80;415.20;22378.00;0.07;39.39;;;;;14.90;2.50;;;;;;2276306;61;1344;-87
2022/11/02 08:28:23;144896.00;0.48;251.01;0.00;0.00;0.62;;;;;15.40;2.40;;;;;;2276437;61;1997;-86
2022/11/02 08:30:53;42789.00;0.14;74.71;0.00;0.00;0.62;;;;;15.60;2.90;;;;;;2276475;61;1110;-87
2022/11/02 08:33:21;293044.00;0.98;505.96;81828.00;0.27;142.19;;;;;16.00;1.00;;;;;;2276409;61;1149;-87
2022/11/02 08:35:49;131253.00;0.44;227.49;0.00;0.00;0.62;;;;;16.20;1.10;;;;;;2276441;61;1293;-87
2022/11/02 08:38:17;74884.00;0.25;130.20;0.00;0.00;0.62;;;;;16.20;1.00;;;;;;2276468;61;972;-88
2022/11/02 08:40:44;148441.00;0.49;257.12;30256.00;0.10;53.03;;;;;16.40;1.00;;;;;;2276379;61;1112;-87
2022/11/02 08:43:13;0.00;0.00;0.62;0.00;0.00;0.62;;;;;16.70;1.00;;;;;;2276364;61;1663;-87
2022/11/02 08:45:42;161561.00;0.54;279.73;0.00;0.00;0.62;;;;;16.50;1.00;;;;;;2276372;61;1236;-87
2022/11/02 08:48:10;290136.00;0.97;500.96;48606.00;0.16;84.78;;;;;16.70;1.00;;;;;;2276392;61;1980;-88
2022/11/02 08:50:38;67835.00;0.23;118.02;0.00;0.00;0.62;;;;;16.70;1.00;;;;;;2276292;61;1082;-87
2022/11/02 08:53:04;285987.00;0.95;493.83;23741.00;0.08;41.75;;;;;16.40;1.00;;;;;;2276410;61;1692;-86
2022/11/02 08:55:32;302482.00;1.01;522.19;51195.00;0.17;89.25;;;;;16.10;1.00;;;;;;2276335;61;1243;-87
2022/11/02 08:58:00;103674.00;0.35;179.91;37413.00;0.12;65.41;;;;;16.00;1.00;;;;;;2276329;61;1608;-88
2022/11/02 09:00:29;366394.00;1.22;632.04;39359.00;0.13;68.78;;;;;16.10;1.00;;;;;;2276307;61;1130;-88
2022/11/02 09:03:01;98248.00;0.33;170.55;0.00;0.00;0.62;;;;;16.00;1.30;;;;;;2276358;61;1099;-89
2022/11/02 09:05:31;274187.00;0.91;473.54;24426.00;0.08;42.93;;;;;16.00;1.90;;;;;;2276047;61;1356;-87
2022/11/02 09:07:59;6052.00;0.02;11.11;0.00;0.00;0.62;;;;;15.90;1.40;;;;;;2276284;61;1927;-87
2022/11/02 09:10:27;190993.00;0.64;330.42;0.00;0.00;0.62;;;;;16.20;1.40;;;;;;2276273;61;947;-89
2022/11/02 09:12:55;12482.00;0.04;22.25;0.00;0.00;0.62;;;;;16.30;1.60;;;;;;2276371;61;1054;-87
2022/11/02 09:15:22;0.00;0.00;0.62;0.00;0.00;0.62;;;;;16.30;1.10;;;;;;2276309;61;929;-89
2022/11/02 09:17:49;102352.00;0.34;177.63;0.00;0.00;0.62;;;;;16.40;1.10;;;;;;2276338;61;1366;-88
2022/11/02 09:20:17;0.00;0.00;0.62;0.00;0.00;0.62;;;;;16.50;1.00;;;;;;2276371;61;1098;-87
2022/11/02 09:22:46;491236.00;1.64;846.74;83428.00;0.28;144.96;;;;;16.60;1.00;;;;;;2276244;61;1732;-87
2022/11/02 09:25:14;169074.00;0.56;292.67;77234.00;0.26;134.26;;;;;16.80;1.00;;;;;;2276225;61;1088;-88
2022/11/02 09:27:42;833534.00;2.78;1439.67;126187.00;0.42;218.75;;;;;16.90;1.00;;;;;;2276216;61;1481;-86
2022/11/02 09:30:10;330500.00;1.10;570.35;91007.00;0.30;158.05;;;;;17.10;1.00;;;;;;2275981;61;1940;-87
2022/11/02 09:32:38;212000.00;0.71;366.58;87752.00;0.29;152.43;;;;;17.30;1.00;;;;;;2276115;61;1062;-88
2022/11/02 09:35:08;268865.00;0.90;464.39;81678.00;0.27;141.94;;;;;17.20;1.00;;;;;;2276238;61;990;-86
2022/11/02 09:37:36;178807.00;0.60;309.44;89934.00;0.30;156.19;;;;;17.30;1.00;;;;;;2276172;61;1270;-86
2022/11/02 09:40:05;312117.00;1.04;538.75;78502.00;0.26;136.45;;;;;17.40;1.00;;;;;;2276190;61;1009;-86
2022/11/02 09:42:42;176724.00;0.59;305.85;82710.00;0.28;143.72;;;;;17.70;1.00;;;;;;2276167;61;1587;-86
2022/11/02 09:45:15;508758.00;1.70;876.90;155417.00;0.52;269.14;;;;;17.50;1.00;;;;;;2276251;61;1086;-87
2022/11/02 09:47:47;324461.00;1.08;559.97;93218.00;0.31;161.86;;;;;17.50;1.00;;;;;;2276204;61;1493;-88
2022/11/02 09:50:19;402936.00;1.34;694.85;83536.00;0.28;145.14;;;;;17.70;1.00;;;;;;2276192;61;1972;-86
2022/11/02 09:52:53;221410.00;0.74;382.77;79488.00;0.26;138.15;;;;;18.00;1.00;;;;;;2276233;61;1123;-87
2022/11/02 09:55:27;404529.00;1.35;697.59;68937.00;0.23;119.92;;;;;18.00;1.00;;;;;;2276173;61;1029;-87
2022/11/02 09:58:01;341925.00;1.14;589.98;115003.00;0.38;199.46;;;;;18.00;1.00;;;;;;2275994;61;961;-88
2022/11/02 10:00:35;182458.00;0.61;315.72;79797.00;0.27;138.69;;;;;18.30;1.00;;;;;;2276188;61;1087;-86
2022/11/02 10:03:19;253765.00;0.85;438.43;71928.00;0.24;125.09;;;;;18.60;1.00;;;;;;2276211;61;1145;-84
2022/11/02 10:05:54;495424.00;1.65;853.95;92950.00;0.31;161.40;;;;;18.20;1.00;;;;;;2276015;61;1466;-84
2022/11/02 10:08:35;203572.00;0.68;352.07;75195.00;0.25;130.74;;;;;17.90;1.00;;;;;;2275931;61;2018;-86
2022/11/02 10:11:17;598279.00;1.99;1031.25;123940.00;0.41;214.88;;;;;18.10;1.00;;;;;;2276288;61;1011;-86
2022/11/02 10:13:51;220066.00;0.73;380.46;81284.00;0.27;141.26;;;;;17.60;1.00;;;;;;2276912;61;1024;-88
2022/11/02 10:16:22;559600.00;1.87;964.51;101493.00;0.34;176.15;;;;;17.60;1.00;;;;;;2276820;61;1422;-87
2022/11/02 10:18:52;272423.00;0.91;470.51;83080.00;0.28;144.36;;;;;17.80;1.00;;;;;;2276912;61;1085;-86
2022/11/02 10:21:23;328184.00;1.09;566.36;84090.00;0.28;146.10;;;;;18.30;1.00;;;;;;2276900;61;1126;-86
2022/11/02 10:23:52;349528.00;1.17;603.05;83613.00;0.28;145.28;;;;;18.40;1.00;;;;;;2276858;61;1079;-87
2022/11/02 10:26:24;339073.00;1.13;585.08;80699.00;0.27;140.24;;;;;18.60;1.00;;;;;;2276714;61;1343;-87